PHKBA WSSL-WSSL

Flight info

Callsign PHKBA
Flight time 0h 12m
Altitude 1000
Route CCTS
Aircraft C172/L-VGD/C

Departure

Time 2026-05-07 15:18
Airport Seletar Airport (WSSL)

Arrival

Time 2026-05-07 15:30
Airport Seletar Airport (WSSL)
Time Latitude Longitude Altitude Speed Heading
2026-05-07 15:02 1.41369 103.86833 48 ft 0 kts 213°
2026-05-07 15:11 1.41360 103.86816 48 ft 5 kts 283°
2026-05-07 15:11 1.41386 103.86778 48 ft 8 kts 306°
2026-05-07 15:11 1.41365 103.86738 49 ft 9 kts 210°
2026-05-07 15:12 1.41289 103.86687 52 ft 12 kts 211°
2026-05-07 15:12 1.41214 103.86639 53 ft 13 kts 215°
2026-05-07 15:12 1.41145 103.86594 53 ft 10 kts 212°
2026-05-07 15:12 1.41083 103.86558 53 ft 10 kts 214°
2026-05-07 15:13 1.41013 103.86512 52 ft 13 kts 214°
2026-05-07 15:13 1.40928 103.86453 51 ft 16 kts 214°
2026-05-07 15:13 1.40835 103.86394 50 ft 12 kts 212°
2026-05-07 15:13 1.40794 103.86334 48 ft 11 kts 290°
2026-05-07 15:14 1.40812 103.86307 48 ft 0 kts 303°
2026-05-07 15:15 1.40817 103.86299 48 ft 6 kts 304°
2026-05-07 15:16 1.40857 103.86240 47 ft 9 kts 328°
2026-05-07 15:16 1.40899 103.86245 47 ft 2 kts 30°
2026-05-07 15:16 1.40947 103.86275 48 ft 29 kts 31°
2026-05-07 15:16 1.41230 103.86455 81 ft 62 kts 36°
2026-05-07 15:17 1.41625 103.86700 200 ft 71 kts 37°
2026-05-07 15:17 1.41922 103.86897 303 ft 74 kts 39°
2026-05-07 15:17 1.42328 103.87157 455 ft 75 kts 35°
2026-05-07 15:17 1.42715 103.87212 635 ft 73 kts 331°
2026-05-07 15:18 1.42931 103.86955 665 ft 85 kts 293°
2026-05-07 15:18 1.43223 103.86407 807 ft 88 kts 291°
2026-05-07 15:18 1.43051 103.85876 904 ft 91 kts 212°
2026-05-07 15:18 1.42521 103.85502 904 ft 95 kts 213°
2026-05-07 15:19 1.41974 103.85105 878 ft 97 kts 213°
2026-05-07 15:19 1.41426 103.84702 902 ft 93 kts 217°
2026-05-07 15:19 1.40878 103.84325 835 ft 99 kts 203°
2026-05-07 15:19 1.40298 103.84330 760 ft 77 kts 140°
2026-05-07 15:20 1.40029 103.84742 649 ft 69 kts 123°
2026-05-07 15:20 1.39782 103.85169 466 ft 71 kts 108°
2026-05-07 15:20 1.39990 103.85551 364 ft 67 kts 51°
2026-05-07 15:20 1.40362 103.85871 231 ft 72 kts 40°
2026-05-07 15:21 1.40765 103.86146 110 ft 69 kts 38°
2026-05-07 15:21 1.41154 103.86407 50 ft 57 kts 38°
2026-05-07 15:21 1.41468 103.86615 50 ft 63 kts 34°
2026-05-07 15:21 1.41864 103.86871 165 ft 70 kts 37°
2026-05-07 15:22 1.42277 103.87137 319 ft 73 kts 36°
2026-05-07 15:22 1.42752 103.87238 494 ft 77 kts 329°
2026-05-07 15:22 1.43079 103.86783 618 ft 84 kts 301°
2026-05-07 15:22 1.43346 103.86265 796 ft 81 kts 273°
2026-05-07 15:23 1.43020 103.85813 817 ft 95 kts 210°
2026-05-07 15:23 1.42461 103.85424 910 ft 100 kts 212°
2026-05-07 15:23 1.41886 103.85038 921 ft 97 kts 212°
2026-05-07 15:23 1.41351 103.84623 891 ft 97 kts 217°
2026-05-07 15:24 1.40830 103.84236 878 ft 93 kts 208°
2026-05-07 15:24 1.40263 103.84224 776 ft 81 kts 140°
2026-05-07 15:24 1.39986 103.84694 620 ft 78 kts 121°
2026-05-07 15:24 1.39746 103.85163 487 ft 71 kts 89°
2026-05-07 15:25 1.40000 103.85590 374 ft 73 kts 51°
2026-05-07 15:25 1.40410 103.85902 232 ft 74 kts 38°
2026-05-07 15:25 1.40831 103.86173 288 ft 72 kts 34°
2026-05-07 15:25 1.41248 103.86437 399 ft 76 kts 31°
2026-05-07 15:26 1.41726 103.86708 520 ft 84 kts 34°
2026-05-07 15:26 1.42225 103.86999 706 ft 83 kts 30°
2026-05-07 15:26 1.42762 103.87205 885 ft 85 kts 356°
2026-05-07 15:26 1.43211 103.86823 929 ft 91 kts 300°
2026-05-07 15:27 1.43364 103.86249 887 ft 84 kts 244°
2026-05-07 15:27 1.42950 103.85869 822 ft 81 kts 207°
2026-05-07 15:27 1.42474 103.85545 798 ft 82 kts 210°
2026-05-07 15:27 1.42003 103.85221 764 ft 85 kts 213°
2026-05-07 15:28 1.41536 103.84875 764 ft 80 kts 210°
2026-05-07 15:28 1.41075 103.84568 751 ft 80 kts 206°
2026-05-07 15:28 1.40609 103.84252 719 ft 76 kts 203°
2026-05-07 15:28 1.40148 103.84263 586 ft 62 kts 135°
2026-05-07 15:29 1.39930 103.84611 478 ft 58 kts 116°
2026-05-07 15:29 1.39765 103.84978 488 ft 59 kts 98°
2026-05-07 15:29 1.39830 103.85400 426 ft 66 kts 57°
2026-05-07 15:29 1.40160 103.85731 327 ft 68 kts 41°
2026-05-07 15:30 1.40566 103.86011 186 ft 72 kts 36°
2026-05-07 15:30 1.40983 103.86292 58 ft 67 kts 38°
2026-05-07 15:30 1.41263 103.86481 50 ft 25 kts 33°
2026-05-07 15:30 1.41295 103.86503 49 ft 5 kts 33°
2026-05-07 15:31 1.41486 103.86628 47 ft 56 kts 33°
2026-05-07 15:31 1.41850 103.86853 176 ft 58 kts 33°
2026-05-07 15:31 1.42191 103.87080 299 ft 62 kts 31°
2026-05-07 15:31 1.42600 103.87228 441 ft 69 kts 349°
2026-05-07 15:32 1.42965 103.86845 512 ft 86 kts 301°
2026-05-07 15:32 1.43276 103.86345 706 ft 83 kts 300°
2026-05-07 15:32 1.43216 103.85818 833 ft 85 kts 218°
2026-05-07 15:32 1.42687 103.85455 901 ft 94 kts 211°
2026-05-07 15:33 1.42120 103.85083 994 ft 98 kts 210°
2026-05-07 15:33 1.41531 103.84701 1005 ft 104 kts 211°
2026-05-07 15:33 1.40909 103.84280 942 ft 108 kts 213°
2026-05-07 15:33 1.40278 103.84048 824 ft 87 kts 167°
2026-05-07 15:34 1.39871 103.84395 656 ft 80 kts 120°
2026-05-07 15:34 1.39624 103.84868 575 ft 72 kts 119°
2026-05-07 15:34 1.39654 103.85318 476 ft 71 kts 57°
2026-05-07 15:34 1.40038 103.85664 355 ft 79 kts 39°
2026-05-07 15:35 1.40508 103.85972 234 ft 77 kts 40°
2026-05-07 15:35 1.40930 103.86261 80 ft 71 kts 38°
2026-05-07 15:35 1.41291 103.86505 50 ft 57 kts 33°
2026-05-07 15:35 1.41681 103.86746 178 ft 64 kts 36°
2026-05-07 15:36 1.42062 103.87001 283 ft 73 kts 44°
2026-05-07 15:36 1.42509 103.87245 445 ft 74 kts
2026-05-07 15:36 1.42919 103.86970 580 ft 80 kts 302°
2026-05-07 15:36 1.43216 103.86472 707 ft 82 kts 301°
2026-05-07 15:37 1.43216 103.85931 836 ft 79 kts 227°
2026-05-07 15:37 1.42767 103.85572 917 ft 85 kts 212°
2026-05-07 15:37 1.42270 103.85242 979 ft 86 kts 213°
2026-05-07 15:37 1.41786 103.84869 995 ft 89 kts 215°
2026-05-07 15:38 1.41265 103.84480 930 ft 98 kts 215°
2026-05-07 15:38 1.40709 103.84081 866 ft 93 kts 208°
2026-05-07 15:38 1.40149 103.84109 790 ft 80 kts 141°
2026-05-07 15:38 1.39842 103.84567 673 ft 80 kts 125°
2026-05-07 15:39 1.39577 103.85033 625 ft 72 kts 104°
2026-05-07 15:39 1.39804 103.85452 484 ft 76 kts 50°
2026-05-07 15:39 1.40231 103.85796 294 ft 77 kts 42°
2026-05-07 15:39 1.40650 103.86074 154 ft 69 kts 43°
2026-05-07 15:40 1.41031 103.86328 57 ft 63 kts 40°
2026-05-07 15:40 1.41348 103.86531 49 ft 58 kts 35°
2026-05-07 15:40 1.41750 103.86787 164 ft 68 kts 33°
2026-05-07 15:40 1.42134 103.87041 339 ft 65 kts 37°
2026-05-07 15:41 1.42578 103.87151 481 ft 73 kts 331°
2026-05-07 15:41 1.42931 103.86722 574 ft 87 kts 300°
2026-05-07 15:41 1.43199 103.86214 792 ft 80 kts 273°
2026-05-07 15:41 1.42920 103.85761 868 ft 88 kts 212°
2026-05-07 15:42 1.42389 103.85383 935 ft 97 kts 210°
2026-05-07 15:42 1.41818 103.84993 956 ft 101 kts 211°
2026-05-07 15:42 1.41220 103.84591 947 ft 101 kts 212°
2026-05-07 15:42 1.40633 103.84173 890 ft 104 kts 211°
2026-05-07 15:43 1.39975 103.83993 862 ft 91 kts 163°
2026-05-07 15:43 1.39575 103.84328 818 ft 68 kts 122°
2026-05-07 15:43 1.39376 103.84732 766 ft 65 kts 108°
2026-05-07 15:43 1.39488 103.85175 631 ft 72 kts 60°
2026-05-07 15:44 1.39854 103.85530 460 ft 75 kts 40°
2026-05-07 15:44 1.40286 103.85825 292 ft 73 kts 40°
2026-05-07 15:44 1.40706 103.86109 146 ft 71 kts 38°
2026-05-07 15:44 1.41101 103.86374 55 ft 60 kts 40°
2026-05-07 15:45 1.41383 103.86560 50 ft 39 kts 35°
2026-05-07 15:45 1.41503 103.86607 47 ft 5 kts 340°
2026-05-07 15:45 1.41536 103.86569 47 ft 8 kts 304°
2026-05-07 15:45 1.41555 103.86539 47 ft 2 kts 300°
2026-05-07 15:46 1.41564 103.86526 47 ft 0 kts 304°
2026-05-07 15:46 1.41564 103.86525 47 ft 1 kts 304°
2026-05-07 15:47 1.41606 103.86519 46 ft 7 kts 19°
2026-05-07 15:47 1.41680 103.86564 45 ft 16 kts 37°
2026-05-07 15:47 1.41762 103.86617 44 ft 13 kts 33°
2026-05-07 15:47 1.41790 103.86679 43 ft 8 kts 111°
2026-05-07 15:48 1.41776 103.86704 43 ft 0 kts 125°
2026-05-07 15:49 1.41775 103.86706 43 ft 0 kts 122°
2026-05-07 15:51 1.41773 103.86709 43 ft 4 kts 117°
2026-05-07 15:52 1.41714 103.86798 43 ft 23 kts 122°
2026-05-07 15:52 1.41663 103.86881 41 ft 10 kts 121°
2026-05-07 15:52 1.41630 103.86903 41 ft 2 kts 176°
2026-05-07 15:52 1.41592 103.86888 42 ft 10 kts 214°
2026-05-07 15:53 1.41511 103.86833 45 ft 12 kts 213°
2026-05-07 15:53 1.41459 103.86800 46 ft 5 kts 213°
2026-05-07 15:53 1.41436 103.86784 47 ft 1 kts 201°
2026-05-07 15:53 1.41418 103.86800 47 ft 3 kts 120°
2026-05-07 15:54 1.41409 103.86814 47 ft 0 kts 128°
2026-05-07 15:54 1.41404 103.86832 47 ft 2 kts 52°
2026-05-07 15:54 1.41415 103.86840 47 ft 0 kts 47°
2026-05-07 15:54 1.41411 103.86837 47 ft 0 kts 57°
2026-05-07 15:55 1.41415 103.86840 47 ft 0 kts 32°
2026-05-07 16:01 1.41415 103.86862 46 ft 0 kts 32°
2026-05-07 16:01 1.41428 103.86827 47 ft 0 kts 32°
2026-05-07 16:01 1.41419 103.86842 47 ft 0 kts 32°
2026-05-07 16:02 1.41412 103.86833 47 ft 0 kts 200°
2026-05-07 16:02 1.41414 103.86846 46 ft 0 kts 49°
2026-05-07 16:02 1.41415 103.86845 47 ft 0 kts 49°
2026-05-07 16:03 1.41421 103.86834 47 ft 0 kts
2026-05-07 16:03 1.41424 103.86832 47 ft 0 kts 315°